sensor_id;sensor_type;location;lat;lon;timestamp;P1;durP1;ratioP1;P2;durP2;ratioP2
26034;SDS011;13809;48.632;11.576;2023-03-31T00:01:38;3.93;;;2.30;;
26034;SDS011;13809;48.632;11.576;2023-03-31T00:06:42;2.60;;;2.17;;
26034;SDS011;13809;48.632;11.576;2023-03-31T00:11:48;4.47;;;2.33;;
26034;SDS011;13809;48.632;11.576;2023-03-31T00:16:51;2.87;;;2.40;;
26034;SDS011;13809;48.632;11.576;2023-03-31T00:21:54;3.13;;;2.40;;
26034;SDS011;13809;48.632;11.576;2023-03-31T00:27:03;4.23;;;2.37;;
26034;SDS011;13809;48.632;11.576;2023-03-31T00:32:07;4.27;;;2.67;;
26034;SDS011;13809;48.632;11.576;2023-03-31T00:37:11;4.37;;;2.60;;
26034;SDS011;13809;48.632;11.576;2023-03-31T00:42:17;3.00;;;2.60;;
26034;SDS011;13809;48.632;11.576;2023-03-31T00:47:21;3.77;;;2.90;;
26034;SDS011;13809;48.632;11.576;2023-03-31T00:52:27;5.57;;;2.63;;
26034;SDS011;13809;48.632;11.576;2023-03-31T00:57:37;3.50;;;2.70;;
26034;SDS011;13809;48.632;11.576;2023-03-31T01:02:43;2.80;;;2.57;;
26034;SDS011;13809;48.632;11.576;2023-03-31T01:07:53;4.93;;;2.90;;
26034;SDS011;13809;48.632;11.576;2023-03-31T01:12:58;6.30;;;2.70;;
26034;SDS011;13809;48.632;11.576;2023-03-31T01:18:02;3.77;;;2.57;;
26034;SDS011;13809;48.632;11.576;2023-03-31T01:28:41;3.60;;;2.80;;
26034;SDS011;13809;48.632;11.576;2023-03-31T01:33:59;4.27;;;2.70;;
26034;SDS011;13809;48.632;11.576;2023-03-31T01:39:46;2.93;;;2.63;;
26034;SDS011;13809;48.632;11.576;2023-03-31T01:45:14;4.53;;;2.70;;
26034;SDS011;13809;48.632;11.576;2023-03-31T01:50:25;6.03;;;3.30;;
26034;SDS011;13809;48.632;11.576;2023-03-31T01:55:38;4.33;;;2.70;;
26034;SDS011;13809;48.632;11.576;2023-03-31T02:00:44;3.33;;;2.67;;
26034;SDS011;13809;48.632;11.576;2023-03-31T02:05:52;6.13;;;3.10;;
26034;SDS011;13809;48.632;11.576;2023-03-31T02:10:59;3.83;;;2.87;;
26034;SDS011;13809;48.632;11.576;2023-03-31T02:16:04;4.17;;;3.20;;
26034;SDS011;13809;48.632;11.576;2023-03-31T02:21:12;6.40;;;3.60;;
26034;SDS011;13809;48.632;11.576;2023-03-31T02:26:19;4.30;;;3.13;;
26034;SDS011;13809;48.632;11.576;2023-03-31T02:31:26;5.07;;;3.40;;
26034;SDS011;13809;48.632;11.576;2023-03-31T02:36:38;5.13;;;3.13;;
26034;SDS011;13809;48.632;11.576;2023-03-31T02:41:44;4.07;;;3.27;;
26034;SDS011;13809;48.632;11.576;2023-03-31T02:46:48;4.33;;;3.00;;
26034;SDS011;13809;48.632;11.576;2023-03-31T02:51:55;3.90;;;2.87;;
26034;SDS011;13809;48.632;11.576;2023-03-31T02:57:19;5.73;;;3.40;;
26034;SDS011;13809;48.632;11.576;2023-03-31T03:02:52;4.60;;;3.40;;
26034;SDS011;13809;48.632;11.576;2023-03-31T03:08:14;4.83;;;3.83;;
26034;SDS011;13809;48.632;11.576;2023-03-31T03:13:25;3.93;;;3.53;;
26034;SDS011;13809;48.632;11.576;2023-03-31T03:18:37;6.17;;;3.93;;
26034;SDS011;13809;48.632;11.576;2023-03-31T03:23:40;5.93;;;3.67;;
26034;SDS011;13809;48.632;11.576;2023-03-31T03:28:44;5.17;;;3.57;;
26034;SDS011;13809;48.632;11.576;2023-03-31T03:33:48;7.07;;;4.00;;
26034;SDS011;13809;48.632;11.576;2023-03-31T03:38:51;5.07;;;4.23;;
26034;SDS011;13809;48.632;11.576;2023-03-31T03:43:56;6.90;;;4.40;;
26034;SDS011;13809;48.632;11.576;2023-03-31T03:48:59;5.90;;;4.03;;
26034;SDS011;13809;48.632;11.576;2023-03-31T03:54:02;7.80;;;3.70;;
26034;SDS011;13809;48.632;11.576;2023-03-31T03:59:07;4.13;;;2.93;;
26034;SDS011;13809;48.632;11.576;2023-03-31T04:04:10;5.53;;;3.10;;
26034;SDS011;13809;48.632;11.576;2023-03-31T04:09:13;5.60;;;3.13;;
26034;SDS011;13809;48.632;11.576;2023-03-31T04:14:18;6.27;;;3.23;;
26034;SDS011;13809;48.632;11.576;2023-03-31T04:19:21;5.90;;;3.97;;
26034;SDS011;13809;48.632;11.576;2023-03-31T04:24:26;4.93;;;3.87;;
26034;SDS011;13809;48.632;11.576;2023-03-31T04:29:32;6.87;;;3.80;;
26034;SDS011;13809;48.632;11.576;2023-03-31T04:34:37;6.50;;;3.80;;
26034;SDS011;13809;48.632;11.576;2023-03-31T04:39:40;6.90;;;3.43;;
26034;SDS011;13809;48.632;11.576;2023-03-31T04:44:48;9.53;;;7.33;;
26034;SDS011;13809;48.632;11.576;2023-03-31T04:49:51;8.80;;;6.07;;
26034;SDS011;13809;48.632;11.576;2023-03-31T04:54:57;6.70;;;4.50;;
26034;SDS011;13809;48.632;11.576;2023-03-31T05:00:01;7.80;;;4.60;;
26034;SDS011;13809;48.632;11.576;2023-03-31T05:05:07;8.47;;;4.03;;
26034;SDS011;13809;48.632;11.576;2023-03-31T05:10:11;7.97;;;4.10;;
26034;SDS011;13809;48.632;11.576;2023-03-31T05:15:18;5.83;;;3.83;;
26034;SDS011;13809;48.632;11.576;2023-03-31T05:20:21;6.43;;;3.83;;
26034;SDS011;13809;48.632;11.576;2023-03-31T05:25:25;5.37;;;3.63;;
26034;SDS011;13809;48.632;11.576;2023-03-31T05:30:34;6.27;;;3.80;;
26034;SDS011;13809;48.632;11.576;2023-03-31T05:35:38;6.37;;;3.23;;
26034;SDS011;13809;48.632;11.576;2023-03-31T05:40:41;6.87;;;4.17;;
26034;SDS011;13809;48.632;11.576;2023-03-31T05:45:45;4.53;;;3.70;;
26034;SDS011;13809;48.632;11.576;2023-03-31T05:50:48;7.73;;;4.30;;
26034;SDS011;13809;48.632;11.576;2023-03-31T05:55:55;5.40;;;3.33;;
26034;SDS011;13809;48.632;11.576;2023-03-31T06:01:02;6.53;;;3.87;;
26034;SDS011;13809;48.632;11.576;2023-03-31T06:06:09;5.87;;;3.90;;
26034;SDS011;13809;48.632;11.576;2023-03-31T06:11:15;5.93;;;4.20;;
26034;SDS011;13809;48.632;11.576;2023-03-31T06:16:22;6.80;;;4.10;;
26034;SDS011;13809;48.632;11.576;2023-03-31T06:21:25;9.03;;;4.17;;
26034;SDS011;13809;48.632;11.576;2023-03-31T06:26:28;4.87;;;4.23;;
26034;SDS011;13809;48.632;11.576;2023-03-31T06:31:33;6.67;;;4.60;;
26034;SDS011;13809;48.632;11.576;2023-03-31T06:36:36;6.77;;;3.80;;
26034;SDS011;13809;48.632;11.576;2023-03-31T06:41:39;4.90;;;4.10;;
26034;SDS011;13809;48.632;11.576;2023-03-31T06:46:44;6.97;;;4.77;;
26034;SDS011;13809;48.632;11.576;2023-03-31T06:51:47;8.93;;;4.27;;
26034;SDS011;13809;48.632;11.576;2023-03-31T06:56:51;7.37;;;4.00;;
26034;SDS011;13809;48.632;11.576;2023-03-31T07:01:55;6.27;;;4.57;;
26034;SDS011;13809;48.632;11.576;2023-03-31T07:06:59;6.60;;;5.70;;
26034;SDS011;13809;48.632;11.576;2023-03-31T07:12:02;7.07;;;4.67;;
26034;SDS011;13809;48.632;11.576;2023-03-31T07:17:07;10.57;;;9.00;;
26034;SDS011;13809;48.632;11.576;2023-03-31T07:22:10;10.27;;;8.93;;
26034;SDS011;13809;48.632;11.576;2023-03-31T07:27:13;6.77;;;5.27;;
26034;SDS011;13809;48.632;11.576;2023-03-31T07:32:18;6.97;;;4.40;;
26034;SDS011;13809;48.632;11.576;2023-03-31T07:37:22;6.87;;;4.57;;
26034;SDS011;13809;48.632;11.576;2023-03-31T07:42:25;5.60;;;4.80;;
26034;SDS011;13809;48.632;11.576;2023-03-31T07:47:30;5.80;;;4.57;;
26034;SDS011;13809;48.632;11.576;2023-03-31T07:52:34;7.27;;;5.57;;
26034;SDS011;13809;48.632;11.576;2023-03-31T07:57:37;7.80;;;4.77;;
26034;SDS011;13809;48.632;11.576;2023-03-31T08:02:43;10.93;;;9.03;;
26034;SDS011;13809;48.632;11.576;2023-03-31T08:07:47;8.30;;;7.03;;
26034;SDS011;13809;48.632;11.576;2023-03-31T08:12:51;6.17;;;4.97;;
26034;SDS011;13809;48.632;11.576;2023-03-31T08:17:57;6.73;;;4.43;;
26034;SDS011;13809;48.632;11.576;2023-03-31T08:23:00;6.50;;;5.17;;
26034;SDS011;13809;48.632;11.576;2023-03-31T08:28:05;7.43;;;4.63;;
26034;SDS011;13809;48.632;11.576;2023-03-31T08:33:12;5.30;;;4.43;;
26034;SDS011;13809;48.632;11.576;2023-03-31T08:38:16;7.17;;;4.27;;
26034;SDS011;13809;48.632;11.576;2023-03-31T08:43:24;5.87;;;4.17;;
26034;SDS011;13809;48.632;11.576;2023-03-31T08:48:33;5.93;;;4.30;;
26034;SDS011;13809;48.632;11.576;2023-03-31T08:53:46;7.80;;;4.67;;
26034;SDS011;13809;48.632;11.576;2023-03-31T08:58:56;6.63;;;6.03;;
26034;SDS011;13809;48.632;11.576;2023-03-31T09:04:14;5.03;;;4.33;;
26034;SDS011;13809;48.632;11.576;2023-03-31T09:09:24;3.87;;;3.30;;
26034;SDS011;13809;48.632;11.576;2023-03-31T09:14:35;3.53;;;3.23;;
26034;SDS011;13809;48.632;11.576;2023-03-31T09:19:43;3.97;;;3.50;;
26034;SDS011;13809;48.632;11.576;2023-03-31T09:24:51;12.67;;;10.17;;
26034;SDS011;13809;48.632;11.576;2023-03-31T09:30:00;5.43;;;4.17;;
26034;SDS011;13809;48.632;11.576;2023-03-31T09:35:13;4.47;;;3.70;;
26034;SDS011;13809;48.632;11.576;2023-03-31T09:40:19;3.43;;;3.13;;
26034;SDS011;13809;48.632;11.576;2023-03-31T09:45:24;3.47;;;3.03;;
26034;SDS011;13809;48.632;11.576;2023-03-31T09:50:29;3.60;;;2.60;;
26034;SDS011;13809;48.632;11.576;2023-03-31T09:55:36;2.83;;;2.00;;
26034;SDS011;13809;48.632;11.576;2023-03-31T10:00:54;2.70;;;2.50;;
26034;SDS011;13809;48.632;11.576;2023-03-31T10:06:02;1.80;;;1.70;;
26034;SDS011;13809;48.632;11.576;2023-03-31T10:11:11;3.27;;;1.80;;
26034;SDS011;13809;48.632;11.576;2023-03-31T10:16:20;2.00;;;1.70;;
26034;SDS011;13809;48.632;11.576;2023-03-31T10:21:27;2.23;;;2.03;;
26034;SDS011;13809;48.632;11.576;2023-03-31T10:26:38;2.17;;;1.57;;
26034;SDS011;13809;48.632;11.576;2023-03-31T10:31:42;1.60;;;1.50;;
26034;SDS011;13809;48.632;11.576;2023-03-31T10:36:48;2.00;;;1.37;;
26034;SDS011;13809;48.632;11.576;2023-03-31T10:41:53;2.03;;;1.40;;
26034;SDS011;13809;48.632;11.576;2023-03-31T10:46:56;1.33;;;1.23;;
26034;SDS011;13809;48.632;11.576;2023-03-31T10:52:14;1.30;;;1.20;;
26034;SDS011;13809;48.632;11.576;2023-03-31T10:57:22;1.13;;;1.00;;
26034;SDS011;13809;48.632;11.576;2023-03-31T11:02:45;1.30;;;1.20;;
26034;SDS011;13809;48.632;11.576;2023-03-31T11:08:20;1.17;;;1.00;;
26034;SDS011;13809;48.632;11.576;2023-03-31T11:13:32;1.60;;;1.03;;
26034;SDS011;13809;48.632;11.576;2023-03-31T11:18:50;1.50;;;1.10;;
26034;SDS011;13809;48.632;11.576;2023-03-31T11:24:06;2.17;;;0.97;;
26034;SDS011;13809;48.632;11.576;2023-03-31T11:29:21;1.23;;;1.00;;
26034;SDS011;13809;48.632;11.576;2023-03-31T11:34:40;2.00;;;1.17;;
26034;SDS011;13809;48.632;11.576;2023-03-31T11:39:58;1.70;;;1.03;;
26034;SDS011;13809;48.632;11.576;2023-03-31T11:45:12;1.10;;;1.00;;
26034;SDS011;13809;48.632;11.576;2023-03-31T11:50:18;1.37;;;0.90;;
26034;SDS011;13809;48.632;11.576;2023-03-31T11:55:26;1.60;;;1.00;;
26034;SDS011;13809;48.632;11.576;2023-03-31T12:00:32;1.20;;;1.00;;
26034;SDS011;13809;48.632;11.576;2023-03-31T12:05:41;1.40;;;1.10;;
26034;SDS011;13809;48.632;11.576;2023-03-31T12:10:49;1.10;;;1.10;;
26034;SDS011;13809;48.632;11.576;2023-03-31T12:15:57;3.03;;;1.10;;
26034;SDS011;13809;48.632;11.576;2023-03-31T12:21:06;2.07;;;1.20;;
26034;SDS011;13809;48.632;11.576;2023-03-31T12:26:17;1.90;;;1.33;;
26034;SDS011;13809;48.632;11.576;2023-03-31T12:31:31;1.10;;;1.00;;
26034;SDS011;13809;48.632;11.576;2023-03-31T12:36:41;1.90;;;1.20;;
26034;SDS011;13809;48.632;11.576;2023-03-31T12:47:44;1.73;;;1.00;;
26034;SDS011;13809;48.632;11.576;2023-03-31T12:53:03;2.07;;;1.07;;
26034;SDS011;13809;48.632;11.576;2023-03-31T13:03:47;1.30;;;1.00;;
26034;SDS011;13809;48.632;11.576;2023-03-31T13:08:53;1.10;;;0.90;;
26034;SDS011;13809;48.632;11.576;2023-03-31T13:13:59;1.10;;;0.90;;
26034;SDS011;13809;48.632;11.576;2023-03-31T13:19:05;1.33;;;1.10;;
26034;SDS011;13809;48.632;11.576;2023-03-31T13:24:08;2.20;;;0.90;;
26034;SDS011;13809;48.632;11.576;2023-03-31T13:29:20;1.43;;;0.80;;
26034;SDS011;13809;48.632;11.576;2023-03-31T13:34:25;0.67;;;0.57;;
26034;SDS011;13809;48.632;11.576;2023-03-31T13:39:38;0.70;;;0.70;;
26034;SDS011;13809;48.632;11.576;2023-03-31T13:45:17;0.70;;;0.70;;
26034;SDS011;13809;48.632;11.576;2023-03-31T13:50:49;0.70;;;0.70;;
26034;SDS011;13809;48.632;11.576;2023-03-31T13:56:03;1.50;;;0.63;;
26034;SDS011;13809;48.632;11.576;2023-03-31T14:01:32;0.97;;;0.63;;
26034;SDS011;13809;48.632;11.576;2023-03-31T14:06:54;0.60;;;0.60;;
26034;SDS011;13809;48.632;11.576;2023-03-31T14:12:00;0.83;;;0.60;;
26034;SDS011;13809;48.632;11.576;2023-03-31T14:17:22;0.70;;;0.67;;
26034;SDS011;13809;48.632;11.576;2023-03-31T14:22:30;0.90;;;0.73;;
26034;SDS011;13809;48.632;11.576;2023-03-31T14:27:48;1.73;;;0.80;;
26034;SDS011;13809;48.632;11.576;2023-03-31T14:33:06;1.00;;;0.80;;
26034;SDS011;13809;48.632;11.576;2023-03-31T14:38:18;0.90;;;0.80;;
26034;SDS011;13809;48.632;11.576;2023-03-31T14:43:22;2.50;;;0.80;;
26034;SDS011;13809;48.632;11.576;2023-03-31T14:48:33;1.70;;;0.80;;
26034;SDS011;13809;48.632;11.576;2023-03-31T14:53:38;0.80;;;0.80;;
26034;SDS011;13809;48.632;11.576;2023-03-31T14:58:44;1.70;;;0.90;;
26034;SDS011;13809;48.632;11.576;2023-03-31T15:03:53;2.73;;;1.10;;
26034;SDS011;13809;48.632;11.576;2023-03-31T15:08:57;3.93;;;1.00;;
26034;SDS011;13809;48.632;11.576;2023-03-31T15:14:05;0.93;;;0.80;;
26034;SDS011;13809;48.632;11.576;2023-03-31T15:19:13;2.27;;;0.90;;
26034;SDS011;13809;48.632;11.576;2023-03-31T15:24:17;1.83;;;1.07;;
26034;SDS011;13809;48.632;11.576;2023-03-31T15:29:22;1.50;;;1.10;;
26034;SDS011;13809;48.632;11.576;2023-03-31T15:34:31;1.43;;;1.00;;
26034;SDS011;13809;48.632;11.576;2023-03-31T15:39:37;2.70;;;1.30;;
26034;SDS011;13809;48.632;11.576;2023-03-31T15:44:43;1.50;;;1.00;;
26034;SDS011;13809;48.632;11.576;2023-03-31T15:49:49;2.50;;;1.00;;
26034;SDS011;13809;48.632;11.576;2023-03-31T15:54:55;3.23;;;1.13;;
26034;SDS011;13809;48.632;11.576;2023-03-31T15:59:59;1.83;;;1.10;;
26034;SDS011;13809;48.632;11.576;2023-03-31T16:05:04;2.70;;;1.40;;
26034;SDS011;13809;48.632;11.576;2023-03-31T16:10:30;3.10;;;1.10;;
26034;SDS011;13809;48.632;11.576;2023-03-31T16:15:36;2.17;;;1.00;;
26034;SDS011;13809;48.632;11.576;2023-03-31T16:20:49;1.57;;;1.20;;
26034;SDS011;13809;48.632;11.576;2023-03-31T16:25:56;1.77;;;0.97;;
26034;SDS011;13809;48.632;11.576;2023-03-31T16:31:00;1.90;;;1.03;;
26034;SDS011;13809;48.632;11.576;2023-03-31T16:36:07;1.77;;;0.90;;
26034;SDS011;13809;48.632;11.576;2023-03-31T16:41:13;2.33;;;1.07;;
26034;SDS011;13809;48.632;11.576;2023-03-31T16:46:17;2.07;;;1.00;;
26034;SDS011;13809;48.632;11.576;2023-03-31T16:51:22;2.87;;;1.30;;
26034;SDS011;13809;48.632;11.576;2023-03-31T16:56:26;2.20;;;1.10;;
26034;SDS011;13809;48.632;11.576;2023-03-31T17:01:29;1.80;;;1.20;;
26034;SDS011;13809;48.632;11.576;2023-03-31T17:06:34;2.47;;;1.10;;
26034;SDS011;13809;48.632;11.576;2023-03-31T17:11:37;1.20;;;1.10;;
26034;SDS011;13809;48.632;11.576;2023-03-31T17:16:40;2.57;;;1.10;;
26034;SDS011;13809;48.632;11.576;2023-03-31T17:21:50;1.73;;;1.07;;
26034;SDS011;13809;48.632;11.576;2023-03-31T17:26:53;2.47;;;1.07;;
26034;SDS011;13809;48.632;11.576;2023-03-31T17:31:57;2.23;;;1.10;;
26034;SDS011;13809;48.632;11.576;2023-03-31T17:37:02;1.60;;;1.20;;
26034;SDS011;13809;48.632;11.576;2023-03-31T17:42:06;0.83;;;0.80;;
26034;SDS011;13809;48.632;11.576;2023-03-31T17:47:09;5.07;;;3.67;;
26034;SDS011;13809;48.632;11.576;2023-03-31T17:52:13;1.73;;;1.30;;
26034;SDS011;13809;48.632;11.576;2023-03-31T17:57:17;2.03;;;1.77;;
26034;SDS011;13809;48.632;11.576;2023-03-31T18:02:20;1.73;;;1.00;;
26034;SDS011;13809;48.632;11.576;2023-03-31T18:07:24;2.27;;;1.80;;
26034;SDS011;13809;48.632;11.576;2023-03-31T18:12:28;1.20;;;1.10;;
26034;SDS011;13809;48.632;11.576;2023-03-31T18:17:31;2.43;;;1.20;;
26034;SDS011;13809;48.632;11.576;2023-03-31T18:22:38;1.90;;;0.90;;
26034;SDS011;13809;48.632;11.576;2023-03-31T18:27:41;1.40;;;0.97;;
26034;SDS011;13809;48.632;11.576;2023-03-31T18:32:44;1.80;;;1.30;;
26034;SDS011;13809;48.632;11.576;2023-03-31T18:37:49;1.30;;;1.20;;
26034;SDS011;13809;48.632;11.576;2023-03-31T18:42:55;2.87;;;0.90;;
26034;SDS011;13809;48.632;11.576;2023-03-31T18:47:58;2.07;;;1.40;;
26034;SDS011;13809;48.632;11.576;2023-03-31T18:53:04;1.77;;;1.10;;
26034;SDS011;13809;48.632;11.576;2023-03-31T18:58:07;1.67;;;0.93;;
26034;SDS011;13809;48.632;11.576;2023-03-31T19:03:10;1.27;;;0.80;;
26034;SDS011;13809;48.632;11.576;2023-03-31T19:08:15;1.10;;;1.00;;
26034;SDS011;13809;48.632;11.576;2023-03-31T19:13:18;1.17;;;0.93;;
26034;SDS011;13809;48.632;11.576;2023-03-31T19:18:22;1.23;;;0.83;;
26034;SDS011;13809;48.632;11.576;2023-03-31T19:23:29;0.90;;;0.83;;
26034;SDS011;13809;48.632;11.576;2023-03-31T19:28:33;1.77;;;0.90;;
26034;SDS011;13809;48.632;11.576;2023-03-31T19:33:36;2.30;;;1.20;;
26034;SDS011;13809;48.632;11.576;2023-03-31T19:38:40;1.10;;;1.00;;
26034;SDS011;13809;48.632;11.576;2023-03-31T19:43:44;2.07;;;0.90;;
26034;SDS011;13809;48.632;11.576;2023-03-31T19:48:48;1.13;;;0.80;;
26034;SDS011;13809;48.632;11.576;2023-03-31T19:53:52;1.23;;;0.80;;
26034;SDS011;13809;48.632;11.576;2023-03-31T19:58:57;1.47;;;0.90;;
26034;SDS011;13809;48.632;11.576;2023-03-31T20:04:00;1.07;;;0.90;;
26034;SDS011;13809;48.632;11.576;2023-03-31T20:09:05;0.93;;;0.80;;
26034;SDS011;13809;48.632;11.576;2023-03-31T20:14:08;1.20;;;0.90;;
26034;SDS011;13809;48.632;11.576;2023-03-31T20:19:11;1.70;;;0.90;;
26034;SDS011;13809;48.632;11.576;2023-03-31T20:24:18;2.03;;;1.30;;
26034;SDS011;13809;48.632;11.576;2023-03-31T20:29:21;2.07;;;1.40;;
26034;SDS011;13809;48.632;11.576;2023-03-31T20:34:25;1.57;;;1.10;;
26034;SDS011;13809;48.632;11.576;2023-03-31T20:39:30;1.90;;;1.30;;
26034;SDS011;13809;48.632;11.576;2023-03-31T20:44:33;2.30;;;1.23;;
26034;SDS011;13809;48.632;11.576;2023-03-31T20:49:36;3.07;;;2.30;;
26034;SDS011;13809;48.632;11.576;2023-03-31T20:54:41;2.87;;;1.67;;
26034;SDS011;13809;48.632;11.576;2023-03-31T20:59:44;2.67;;;1.73;;
26034;SDS011;13809;48.632;11.576;2023-03-31T21:04:47;3.80;;;1.50;;
26034;SDS011;13809;48.632;11.576;2023-03-31T21:09:53;1.73;;;1.27;;
26034;SDS011;13809;48.632;11.576;2023-03-31T21:14:56;2.33;;;1.40;;
26034;SDS011;13809;48.632;11.576;2023-03-31T21:19:59;1.47;;;1.10;;
26034;SDS011;13809;48.632;11.576;2023-03-31T21:25:05;1.87;;;1.20;;
26034;SDS011;13809;48.632;11.576;2023-03-31T21:30:10;1.00;;;0.90;;
26034;SDS011;13809;48.632;11.576;2023-03-31T21:35:14;2.20;;;1.10;;
26034;SDS011;13809;48.632;11.576;2023-03-31T21:40:19;1.97;;;1.00;;
26034;SDS011;13809;48.632;11.576;2023-03-31T21:45:22;2.63;;;1.20;;
26034;SDS011;13809;48.632;11.576;2023-03-31T21:50:26;1.17;;;0.87;;
26034;SDS011;13809;48.632;11.576;2023-03-31T21:55:30;1.37;;;0.83;;
26034;SDS011;13809;48.632;11.576;2023-03-31T22:00:34;2.40;;;0.90;;
26034;SDS011;13809;48.632;11.576;2023-03-31T22:05:37;0.80;;;0.80;;
26034;SDS011;13809;48.632;11.576;2023-03-31T22:10:46;1.40;;;0.97;;
26034;SDS011;13809;48.632;11.576;2023-03-31T22:15:49;1.67;;;1.00;;
26034;SDS011;13809;48.632;11.576;2023-03-31T22:20:53;1.73;;;0.80;;
26034;SDS011;13809;48.632;11.576;2023-03-31T22:25:58;1.67;;;0.90;;
26034;SDS011;13809;48.632;11.576;2023-03-31T22:31:01;1.57;;;1.03;;
26034;SDS011;13809;48.632;11.576;2023-03-31T22:36:05;2.17;;;1.00;;
26034;SDS011;13809;48.632;11.576;2023-03-31T22:41:10;2.87;;;1.10;;
26034;SDS011;13809;48.632;11.576;2023-03-31T22:46:13;1.70;;;0.87;;
26034;SDS011;13809;48.632;11.576;2023-03-31T22:51:17;1.47;;;0.80;;
26034;SDS011;13809;48.632;11.576;2023-03-31T22:56:22;2.23;;;0.90;;
26034;SDS011;13809;48.632;11.576;2023-03-31T23:01:26;2.23;;;0.80;;
26034;SDS011;13809;48.632;11.576;2023-03-31T23:06:29;1.57;;;0.80;;
26034;SDS011;13809;48.632;11.576;2023-03-31T23:11:37;2.17;;;0.87;;
26034;SDS011;13809;48.632;11.576;2023-03-31T23:16:41;2.27;;;0.80;;
26034;SDS011;13809;48.632;11.576;2023-03-31T23:21:44;1.20;;;0.80;;
26034;SDS011;13809;48.632;11.576;2023-03-31T23:26:49;1.80;;;0.80;;
26034;SDS011;13809;48.632;11.576;2023-03-31T23:31:52;1.37;;;0.70;;
26034;SDS011;13809;48.632;11.576;2023-03-31T23:36:55;1.03;;;0.80;;
26034;SDS011;13809;48.632;11.576;2023-03-31T23:42:00;0.93;;;0.60;;
26034;SDS011;13809;48.632;11.576;2023-03-31T23:47:03;0.70;;;0.70;;
26034;SDS011;13809;48.632;11.576;2023-03-31T23:52:06;0.70;;;0.70;;
26034;SDS011;13809;48.632;11.576;2023-03-31T23:57:11;1.27;;;0.70;;
